Time;durP1;ratioP1;P1;durP2;ratioP2;P2;SDS_P1;SDS_P2;PMS_P1;PMS_P2;Temp;Humidity;BMP_temperature;BMP_pressure;BME280_temperature;BME280_humidity;BME280_pressure;Samples;Min_cycle;Max_cycle;Signal;HPM_P1;HPM_P2
2023/11/16 00:00:17;;;;;;;1.05;1.05;;;5.10;99.90;;;;;;6136201;23;20511;-88
2023/11/16 00:05:26;;;;;;;0.90;0.90;;;5.20;99.90;;;;;;6110917;23;20213;-90
2023/11/16 00:07:55;;;;;;;0.93;0.93;;;5.30;99.90;;;;;;6083806;23;20187;-88
2023/11/16 00:10:24;;;;;;;1.33;1.30;;;5.30;99.90;;;;;;6106669;23;20194;-88
2023/11/16 00:12:55;;;;;;;5.85;2.90;;;5.30;99.90;;;;;;6082603;23;20181;-87
2023/11/16 00:15:23;;;;;;;1.85;1.75;;;5.20;99.90;;;;;;6073272;23;20747;-88
2023/11/16 00:17:50;;;;;;;1.33;1.23;;;5.30;99.90;;;;;;6113484;23;20189;-87
2023/11/16 00:20:18;;;;;;;2.10;2.00;;;5.30;99.90;;;;;;6141156;23;20182;-88
2023/11/16 00:22:45;;;;;;;1.55;1.45;;;5.20;99.90;;;;;;6136439;23;20537;-87
2023/11/16 00:25:13;;;;;;;2.35;2.25;;;5.20;99.90;;;;;;6108087;23;20190;-86
2023/11/16 00:27:42;;;;;;;3.45;3.08;;;5.20;99.90;;;;;;6134304;23;20194;-85
2023/11/16 00:30:10;;;;;;;2.67;2.58;;;5.10;99.90;;;;;;6133442;23;20221;-87
2023/11/16 00:32:39;;;;;;;2.20;2.00;;;5.10;99.90;;;;;;6134515;23;20388;-86
2023/11/16 00:35:07;;;;;;;0.63;0.63;;;5.00;99.90;;;;;;6107438;23;20206;-86
2023/11/16 00:37:35;;;;;;;1.30;1.30;;;5.00;99.90;;;;;;6109041;23;20210;-86
2023/11/16 00:40:03;;;;;;;2.17;2.08;;;4.90;99.90;;;;;;6133945;23;20179;-88
2023/11/16 00:42:30;;;;;;;0.50;0.50;;;4.80;99.90;;;;;;6111061;23;20174;-88
2023/11/16 00:44:57;;;;;;;1.23;1.23;;;4.90;99.90;;;;;;6109689;23;20178;-87
2023/11/16 00:47:24;;;;;;;1.90;1.80;;;5.00;99.90;;;;;;6134222;23;20188;-86
2023/11/16 00:49:52;;;;;;;1.10;1.10;;;5.00;99.90;;;;;;6113875;23;20174;-87
2023/11/16 00:52:20;;;;;;;1.70;1.70;;;5.10;99.90;;;;;;6111019;23;20182;-85
2023/11/16 00:54:48;;;;;;;2.35;2.25;;;5.10;99.90;;;;;;6112365;23;20170;-88
2023/11/16 00:57:18;;;;;;;1.83;1.38;;;5.30;99.90;;;;;;6137729;23;20174;-87
2023/11/16 00:59:46;;;;;;;3.33;2.90;;;5.30;99.90;;;;;;6135994;23;20391;-86
2023/11/16 01:02:17;;;;;;;1.13;1.13;;;5.30;99.90;;;;;;6138836;23;20542;-87
2023/11/16 01:04:44;;;;;;;0.85;0.85;;;5.40;99.90;;;;;;6150143;23;20182;-85
2023/11/16 01:07:12;;;;;;;0.73;0.73;;;5.50;99.90;;;;;;6149178;23;20159;-87
2023/11/16 01:09:39;;;;;;;1.20;1.20;;;5.50;99.90;;;;;;6123036;23;20193;-87
2023/11/16 01:12:15;;;;;;;0.82;0.80;;;5.50;99.90;;;;;;6148811;23;20167;-88
2023/11/16 01:14:44;;;;;;;1.15;1.15;;;5.50;99.90;;;;;;6126049;23;20150;-87
2023/11/16 01:17:18;;;;;;;1.75;1.67;;;5.50;99.90;;;;;;6178131;23;20185;-89
2023/11/16 01:19:47;;;;;;;0.85;0.85;;;5.50;99.90;;;;;;6178642;23;20169;-85
2023/11/16 01:22:16;;;;;;;1.25;1.15;;;5.50;99.90;;;;;;6154314;23;20224;-86
2023/11/16 01:24:47;;;;;;;0.45;0.45;;;5.60;99.90;;;;;;6179070;23;20189;-86
2023/11/16 01:27:25;;;;;;;2.78;2.58;;;5.60;99.90;;;;;;6179186;23;20194;-87
2023/11/16 01:29:54;;;;;;;1.85;1.75;;;5.60;99.90;;;;;;6179857;23;20225;-88
2023/11/16 01:32:21;;;;;;;0.93;0.93;;;5.60;99.90;;;;;;6179420;23;20158;-88
2023/11/16 01:34:48;;;;;;;5.30;1.27;;;5.60;99.90;;;;;;6179549;23;20395;-86
2023/11/16 01:37:15;;;;;;;5.07;3.50;;;5.60;99.90;;;;;;6179356;23;20369;-87
2023/11/16 01:39:43;;;;;;;1.33;1.33;;;5.60;99.90;;;;;;6122934;23;20212;-87
2023/11/16 01:42:10;;;;;;;2.85;1.67;;;5.60;99.90;;;;;;6120832;23;20264;-88
2023/11/16 01:44:40;;;;;;;1.30;1.30;;;5.60;99.90;;;;;;6136278;23;20202;-89
2023/11/16 01:47:08;;;;;;;2.05;1.30;;;5.60;99.90;;;;;;6135800;23;20186;-88
2023/11/16 01:49:37;;;;;;;2.33;2.15;;;5.70;99.90;;;;;;6110845;23;20179;-89
2023/11/16 01:52:06;;;;;;;1.20;1.20;;;5.60;99.90;;;;;;6110287;23;20171;-87
2023/11/16 01:54:35;;;;;;;3.08;1.75;;;5.70;99.90;;;;;;6109450;23;20182;-89
2023/11/16 01:57:03;;;;;;;1.35;1.33;;;5.80;99.90;;;;;;6109516;23;20518;-88
2023/11/16 01:59:34;;;;;;;3.55;3.35;;;5.60;99.90;;;;;;6135481;23;20233;-87
2023/11/16 02:02:05;;;;;;;0.50;0.50;;;5.70;99.90;;;;;;6110933;23;20185;-88
2023/11/16 02:04:34;;;;;;;1.40;1.00;;;5.70;99.90;;;;;;6109965;23;20174;-88
2023/11/16 02:07:05;;;;;;;1.73;1.73;;;5.70;99.90;;;;;;6135098;23;20220;-88
2023/11/16 02:09:32;;;;;;;1.30;1.30;;;5.70;99.90;;;;;;6109478;23;20258;-89
2023/11/16 02:12:00;;;;;;;0.95;0.95;;;5.70;99.90;;;;;;6111194;23;20182;-90
2023/11/16 02:14:27;;;;;;;1.20;1.20;;;5.70;99.90;;;;;;6112552;23;20186;-88
2023/11/16 02:16:56;;;;;;;2.42;2.13;;;5.70;99.90;;;;;;6115714;23;20194;-89
2023/11/16 02:19:30;;;;;;;9.20;3.60;;;5.70;99.90;;;;;;6139535;23;20353;-89
2023/11/16 02:21:59;;;;;;;0.80;0.80;;;5.80;99.90;;;;;;6110276;23;20178;-88
2023/11/16 02:24:30;;;;;;;2.38;2.28;;;5.50;99.90;;;;;;6121207;23;20206;-90
2023/11/16 02:32:15;;;;;;;2.47;1.92;;;5.20;99.90;;;;;;5985035;23;20680;-91
2023/11/16 02:34:47;;;;;;;14.15;3.95;;;5.30;99.90;;;;;;6015180;23;20202;-92
2023/11/16 02:37:33;;;;;;;1.77;1.67;;;5.30;99.90;;;;;;6073160;23;20278;-89
2023/11/16 02:40:00;;;;;;;1.20;1.20;;;5.50;99.90;;;;;;6109311;23;20183;-91
2023/11/16 02:42:27;;;;;;;0.73;0.73;;;5.50;99.90;;;;;;6068251;23;20202;-87
2023/11/16 02:44:57;;;;;;;2.25;1.50;;;5.70;99.90;;;;;;6171954;23;20182;-89
2023/11/16 02:47:28;;;;;;;0.60;0.60;;;5.90;99.90;;;;;;6148072;23;20210;-88
2023/11/16 02:49:55;;;;;;;0.85;0.85;;;5.90;99.90;;;;;;6165303;23;20415;-89
2023/11/16 02:52:22;;;;;;;2.05;1.95;;;5.70;99.90;;;;;;6140094;23;20185;-88
2023/11/16 02:54:49;;;;;;;2.15;2.05;;;6.00;99.90;;;;;;6144517;23;20188;-89
2023/11/16 02:57:20;;;;;;;0.68;0.68;;;5.90;99.90;;;;;;6165590;23;20213;-86
2023/11/16 02:59:48;;;;;;;1.10;1.10;;;5.90;99.90;;;;;;6164260;23;20162;-87
2023/11/16 03:02:18;;;;;;;5.88;2.78;;;5.80;99.90;;;;;;6163317;23;20231;-86
2023/11/16 03:15:26;;;;;;;1.33;1.25;;;6.00;99.90;;;;;;6127640;23;20201;-90
2023/11/16 03:33:59;;;;;;;1.30;1.30;;;6.10;99.90;;;;;;6049078;23;20287;-92
2023/11/16 03:36:28;;;;;;;0.68;0.68;;;6.10;99.90;;;;;;6139242;23;20399;-90
2023/11/16 03:38:58;;;;;;;0.50;0.50;;;6.00;99.90;;;;;;6137096;23;20201;-89
2023/11/16 03:41:26;;;;;;;0.95;0.95;;;5.90;99.90;;;;;;6134925;23;20202;-90
2023/11/16 03:43:54;;;;;;;0.63;0.63;;;6.10;99.90;;;;;;6134016;23;20186;-89
2023/11/16 03:46:21;;;;;;;0.50;0.50;;;6.00;99.90;;;;;;6135987;23;20193;-89
2023/11/16 03:48:48;;;;;;;1.98;1.13;;;6.10;99.90;;;;;;6134539;23;20236;-89
2023/11/16 03:51:16;;;;;;;1.05;1.05;;;6.10;99.90;;;;;;6133608;23;20182;-88
2023/11/16 03:53:44;;;;;;;0.70;0.70;;;6.00;99.90;;;;;;6138483;23;20178;-89
2023/11/16 03:58:47;;;;;;;1.17;1.17;;;6.10;99.90;;;;;;6096086;23;20190;-88
2023/11/16 04:01:14;;;;;;;0.98;0.98;;;6.10;99.90;;;;;;6104588;23;20196;-87
2023/11/16 04:03:43;;;;;;;4.05;3.70;;;6.10;99.90;;;;;;6061760;23;20207;-84
2023/11/16 04:08:47;;;;;;;1.15;1.15;;;6.20;99.90;;;;;;6112261;23;20205;-86
2023/11/16 04:11:17;;;;;;;0.75;0.75;;;6.20;99.90;;;;;;6145348;23;20212;-87
2023/11/16 04:13:46;;;;;;;6.07;2.63;;;6.20;99.90;;;;;;6149570;23;20201;-88
2023/11/16 04:16:23;;;;;;;0.80;0.80;;;6.00;99.90;;;;;;6138892;23;20206;-85
2023/11/16 04:19:15;;;;;;;7.97;1.42;;;6.00;99.90;;;;;;5366258;22;20584;-85
2023/11/16 04:21:42;;;;;;;1.05;1.05;;;6.20;99.90;;;;;;5157278;22;20242;-89
2023/11/16 04:24:16;;;;;;;0.82;0.82;;;6.10;99.90;;;;;;5501110;22;20559;-89
2023/11/16 04:34:38;;;;;;;0.82;0.82;;;6.20;99.90;;;;;;5145066;22;20507;-88
2023/11/16 04:39:41;;;;;;;0.60;0.60;;;6.20;99.90;;;;;;5305724;22;20232;-89
2023/11/16 04:42:09;;;;;;;0.82;0.82;;;6.20;99.90;;;;;;5204700;22;20224;-89
2023/11/16 04:44:36;;;;;;;0.77;0.77;;;6.30;99.90;;;;;;5159599;22;20280;-84
2023/11/16 04:47:05;;;;;;;0.70;0.70;;;6.20;99.90;;;;;;5161466;22;20250;-88
2023/11/16 04:52:08;;;;;;;2.20;2.10;;;6.20;99.90;;;;;;5375749;22;20754;-89
2023/11/16 04:57:08;;;;;;;2.08;1.95;;;6.30;99.90;;;;;;5274881;22;20240;-87
2023/11/16 04:59:44;;;;;;;0.82;0.82;;;6.30;99.90;;;;;;5046218;28;20204;-86
2023/11/16 05:02:12;;;;;;;1.30;1.20;;;6.30;99.90;;;;;;5155262;22;20274;-90
2023/11/16 05:04:44;;;;;;;3.78;3.47;;;6.30;99.90;;;;;;5067491;28;20202;-89
2023/11/16 05:07:16;;;;;;;0.80;0.80;;;6.30;99.90;;;;;;5254060;22;20422;-91
2023/11/16 05:09:43;;;;;;;0.90;0.90;;;6.30;99.90;;;;;;5372581;22;20304;-88
2023/11/16 05:12:10;;;;;;;1.92;1.85;;;6.30;99.90;;;;;;5277599;22;20298;-92
2023/11/16 05:14:43;;;;;;;2.25;2.05;;;6.30;99.90;;;;;;5164175;22;20206;-88
2023/11/16 05:17:24;;;;;;;0.70;0.70;;;6.30;99.90;;;;;;5203484;22;20216;-89
2023/11/16 05:20:06;;;;;;;0.50;0.50;;;6.30;99.90;;;;;;5306254;23;20242;-88
2023/11/16 05:22:34;;;;;;;8.65;0.98;;;6.30;99.90;;;;;;5023933;28;20210;-89
2023/11/16 05:25:01;;;;;;;1.55;1.45;;;6.40;99.90;;;;;;5141862;22;20207;-92
2023/11/16 05:27:30;;;;;;;0.80;0.80;;;6.50;99.90;;;;;;5051919;28;20216;-90
2023/11/16 05:30:01;;;;;;;2.53;2.42;;;6.30;99.90;;;;;;5184831;23;20677;-89
2023/11/16 05:32:30;;;;;;;1.35;1.27;;;6.20;99.90;;;;;;5014839;28;20218;-90
2023/11/16 05:34:57;;;;;;;0.50;0.50;;;6.30;99.90;;;;;;5007743;28;20206;-87
2023/11/16 05:37:26;;;;;;;0.70;0.70;;;6.20;99.90;;;;;;4997514;28;20241;-88
2023/11/16 05:39:53;;;;;;;0.52;0.52;;;6.20;99.90;;;;;;5017259;28;20211;-88
2023/11/16 05:42:21;;;;;;;3.17;3.05;;;6.30;99.90;;;;;;5009950;28;20257;-85
2023/11/16 05:44:49;;;;;;;1.63;1.52;;;6.50;99.90;;;;;;5008840;28;20202;-88
2023/11/16 05:47:16;;;;;;;1.13;1.08;;;6.30;99.90;;;;;;4997123;28;20209;-84
2023/11/16 05:49:43;;;;;;;0.80;0.80;;;6.20;99.90;;;;;;5008008;28;20277;-85
2023/11/16 05:52:10;;;;;;;1.60;1.50;;;6.20;99.90;;;;;;5015907;28;20245;-84
2023/11/16 05:54:38;;;;;;;1.20;1.15;;;6.20;99.90;;;;;;5003237;28;20202;-83
2023/11/16 05:57:05;;;;;;;2.55;2.45;;;6.20;99.90;;;;;;5002396;28;20305;-84
2023/11/16 05:59:32;;;;;;;1.95;1.13;;;6.20;99.90;;;;;;4998048;28;20232;-83
2023/11/16 06:02:00;;;;;;;3.28;2.53;;;6.20;99.90;;;;;;5142354;23;20253;-89
2023/11/16 06:04:28;;;;;;;5.60;1.58;;;6.30;99.90;;;;;;5136596;23;20389;-84
2023/11/16 06:06:55;;;;;;;1.60;1.50;;;6.10;99.90;;;;;;5114373;22;20412;-89
2023/11/16 06:09:24;;;;;;;0.65;0.65;;;6.20;99.90;;;;;;4993173;28;20199;-86
2023/11/16 06:11:52;;;;;;;0.88;0.88;;;6.00;99.90;;;;;;4988165;28;20223;-86
2023/11/16 06:14:22;;;;;;;3.05;2.60;;;6.00;99.90;;;;;;4998034;28;20205;-87
2023/11/16 06:17:06;;;;;;;1.15;1.13;;;5.90;99.90;;;;;;5007591;23;20206;-89
2023/11/16 06:19:34;;;;;;;0.75;0.75;;;6.10;99.90;;;;;;5033209;28;20217;-88
2023/11/16 06:22:01;;;;;;;0.60;0.60;;;5.70;99.90;;;;;;5046639;28;20200;-84
2023/11/16 06:24:28;;;;;;;1.50;1.40;;;5.60;99.90;;;;;;5033415;28;20201;-84
2023/11/16 06:26:55;;;;;;;0.95;0.95;;;5.60;99.90;;;;;;5035347;28;20190;-89
2023/11/16 06:31:52;;;;;;;2.80;2.60;;;5.50;99.90;;;;;;5054478;28;20218;-84
2023/11/16 06:34:19;;;;;;;2.20;1.70;;;5.40;99.90;;;;;;5057717;28;20209;-87
2023/11/16 06:36:46;;;;;;;1.67;1.58;;;5.50;99.90;;;;;;5062651;28;20227;-86
2023/11/16 06:39:14;;;;;;;4.47;1.85;;;5.20;99.90;;;;;;5062126;28;20235;-90
2023/11/16 06:41:41;;;;;;;2.25;2.05;;;5.40;99.90;;;;;;5059418;28;20214;-86
2023/11/16 06:44:09;;;;;;;2.95;1.83;;;5.30;99.90;;;;;;5064695;28;20227;-86
2023/11/16 06:46:36;;;;;;;2.03;1.92;;;5.40;99.90;;;;;;5052402;28;20263;-90
2023/11/16 06:49:07;;;;;;;0.95;0.95;;;5.20;99.90;;;;;;5059915;28;20200;-88
2023/11/16 06:51:35;;;;;;;0.98;0.98;;;5.20;99.90;;;;;;5060392;28;20224;-88
2023/11/16 06:54:05;;;;;;;2.60;2.40;;;5.20;99.90;;;;;;5063065;28;20265;-86
2023/11/16 06:56:36;;;;;;;1.45;1.40;;;5.20;99.90;;;;;;5065696;28;20346;-85
2023/11/16 06:59:04;;;;;;;1.08;1.08;;;5.30;99.90;;;;;;5058941;28;20238;-89
2023/11/16 07:01:35;;;;;;;2.90;1.33;;;5.30;99.90;;;;;;5072476;28;20260;-92
2023/11/16 07:04:02;;;;;;;3.05;0.70;;;5.30;99.90;;;;;;5061334;28;20209;-83
2023/11/16 07:06:29;;;;;;;0.90;0.90;;;5.30;99.90;;;;;;5059908;28;20212;-87
2023/11/16 07:08:57;;;;;;;2.28;1.42;;;5.40;99.90;;;;;;5070970;28;20223;-84
2023/11/16 07:11:24;;;;;;;1.20;1.20;;;5.50;99.90;;;;;;5061958;28;20250;-89
2023/11/16 07:13:52;;;;;;;1.33;1.33;;;5.60;99.90;;;;;;5061599;28;20260;-88
2023/11/16 07:16:19;;;;;;;0.65;0.65;;;5.60;99.90;;;;;;5051235;28;20209;-86
2023/11/16 07:18:49;;;;;;;3.15;2.72;;;5.80;99.90;;;;;;5057247;28;20552;-84
2023/11/16 07:21:16;;;;;;;1.05;0.95;;;5.90;99.90;;;;;;5050636;28;20180;-88
2023/11/16 07:23:43;;;;;;;1.23;1.23;;;7.60;99.90;;;;;;5047220;28;20250;-87
2023/11/16 07:26:10;;;;;;;1.85;1.75;;;9.50;99.90;;;;;;5059636;28;20480;-89
2023/11/16 07:28:44;;;;;;;0.90;0.90;;;10.70;99.90;;;;;;5050570;28;20216;-86
2023/11/16 07:31:16;;;;;;;0.50;0.50;;;11.40;99.90;;;;;;5051405;28;20290;-86
2023/11/16 07:33:43;;;;;;;1.83;1.75;;;12.10;99.90;;;;;;5055039;28;20209;-86
2023/11/16 07:36:11;;;;;;;1.90;1.77;;;11.20;99.90;;;;;;5061456;28;20215;-88
2023/11/16 07:38:40;;;;;;;1.20;1.20;;;12.00;99.90;;;;;;5160683;22;20229;-85
2023/11/16 07:41:07;;;;;;;3.05;2.85;;;9.40;99.90;;;;;;5034400;28;20225;-90
2023/11/16 07:43:35;;;;;;;1.10;1.10;;;7.90;99.90;;;;;;5022839;28;20197;-88
2023/11/16 07:46:02;;;;;;;0.70;0.70;;;7.50;99.90;;;;;;5017630;28;20208;-84
2023/11/16 07:48:31;;;;;;;1.05;1.05;;;7.40;99.90;;;;;;5023905;28;20285;-87
2023/11/16 07:51:02;;;;;;;0.75;0.75;;;7.50;99.90;;;;;;5023441;28;20221;-91
2023/11/16 07:53:31;;;;;;;1.20;1.20;;;7.60;99.90;;;;;;5019694;28;20255;-85
2023/11/16 07:56:05;;;;;;;1.83;1.73;;;7.60;99.90;;;;;;5019207;28;20206;-86
2023/11/16 07:58:34;;;;;;;0.50;0.50;;;7.60;99.90;;;;;;5022626;28;20223;-87
2023/11/16 08:01:11;;;;;;;1.40;1.40;;;7.60;99.90;;;;;;5029637;28;20269;-89
2023/11/16 08:03:46;;;;;;;0.50;0.50;;;7.70;99.90;;;;;;5016644;28;20686;-85
2023/11/16 08:06:14;;;;;;;2.03;1.77;;;7.60;99.90;;;;;;5012243;28;20202;-85
2023/11/16 08:08:44;;;;;;;0.70;0.70;;;7.60;99.90;;;;;;5018448;28;20244;-85
2023/11/16 08:11:13;;;;;;;0.75;0.75;;;7.60;99.90;;;;;;5024570;28;20209;-84
2023/11/16 08:13:42;;;;;;;0.82;0.82;;;7.60;99.90;;;;;;5012318;28;20209;-84
2023/11/16 08:16:18;;;;;;;1.50;1.40;;;7.60;99.90;;;;;;5014977;28;20288;-83
2023/11/16 08:18:46;;;;;;;1.40;1.35;;;7.50;99.90;;;;;;5022858;28;20237;-89
2023/11/16 08:21:13;;;;;;;0.60;0.60;;;7.80;99.90;;;;;;5026735;28;20205;-85
2023/11/16 08:23:45;;;;;;;0.75;0.75;;;7.90;99.90;;;;;;5021219;28;20210;-85
2023/11/16 08:26:18;;;;;;;0.50;0.50;;;7.90;99.90;;;;;;5020299;28;20208;-87
2023/11/16 08:28:48;;;;;;;0.75;0.75;;;8.00;99.90;;;;;;5016261;28;20218;-86
2023/11/16 08:31:17;;;;;;;0.73;0.73;;;8.10;99.90;;;;;;5014179;28;20224;-84
2023/11/16 08:33:45;;;;;;;1.30;1.30;;;10.00;99.90;;;;;;5017220;28;20413;-85
2023/11/16 08:36:15;;;;;;;0.88;0.88;;;12.20;99.90;;;;;;5012703;28;20229;-86
2023/11/16 08:38:45;;;;;;;1.15;1.13;;;13.30;99.90;;;;;;5023413;28;20237;-85
2023/11/16 08:41:17;;;;;;;0.77;0.77;;;13.30;99.90;;;;;;5023500;28;20515;-86
2023/11/16 08:43:46;;;;;;;0.70;0.70;;;13.00;99.90;;;;;;5015075;28;20208;-88
2023/11/16 08:46:24;;;;;;;1.52;1.42;;;13.20;99.90;;;;;;5024429;28;20201;-85
2023/11/16 08:48:52;;;;;;;1.15;1.15;;;12.50;99.90;;;;;;5022325;28;20204;-85
2023/11/16 08:51:23;;;;;;;0.60;0.60;;;10.50;99.90;;;;;;5014417;28;20211;-84
2023/11/16 08:53:55;;;;;;;0.60;0.60;;;9.90;99.90;;;;;;5030678;28;20494;-84
2023/11/16 08:56:26;;;;;;;0.50;0.50;;;9.80;99.90;;;;;;5026440;28;20194;-82
2023/11/16 08:58:58;;;;;;;2.95;2.67;;;9.80;99.90;;;;;;5028793;28;20205;-84
2023/11/16 09:01:26;;;;;;;0.93;0.93;;;9.90;99.90;;;;;;5031612;28;20263;-87
2023/11/16 09:03:54;;;;;;;0.60;0.60;;;10.00;99.90;;;;;;5029714;28;20193;-85
2023/11/16 09:06:21;;;;;;;1.35;1.35;;;10.10;99.90;;;;;;5017805;28;20213;-90
2023/11/16 09:08:49;;;;;;;0.90;0.90;;;10.00;99.90;;;;;;5027542;28;20225;-85
2023/11/16 09:11:22;;;;;;;0.50;0.50;;;9.90;99.90;;;;;;5024627;28;20294;-87
2023/11/16 09:13:49;;;;;;;1.02;1.02;;;9.90;99.90;;;;;;5023134;28;20545;-87
2023/11/16 09:16:21;;;;;;;1.33;1.25;;;9.90;99.90;;;;;;5015185;28;20266;-89
2023/11/16 09:18:48;;;;;;;4.63;2.70;;;10.10;99.90;;;;;;5006273;28;20229;-84
2023/11/16 09:21:15;;;;;;;1.55;1.55;;;9.90;99.90;;;;;;5035373;28;20228;-84
2023/11/16 09:23:43;;;;;;;0.60;0.60;;;9.90;99.90;;;;;;5020556;28;20553;-87
2023/11/16 09:26:10;;;;;;;1.05;1.05;;;10.00;99.90;;;;;;5046314;28;20260;-86
2023/11/16 09:28:39;;;;;;;0.60;0.60;;;9.90;99.90;;;;;;5038289;28;20213;-88
2023/11/16 09:31:12;;;;;;;0.85;0.85;;;9.80;99.90;;;;;;5032858;28;20209;-87
2023/11/16 09:33:39;;;;;;;0.70;0.70;;;9.70;99.90;;;;;;5012015;28;20202;-86
2023/11/16 09:36:08;;;;;;;2.13;1.95;;;9.50;99.90;;;;;;5019611;28;20213;-85
2023/11/16 09:38:36;;;;;;;0.82;0.82;;;9.40;99.90;;;;;;5031749;28;20256;-89
2023/11/16 09:41:25;;;;;;;0.60;0.60;;;9.40;99.90;;;;;;5025130;28;20209;-89
2023/11/16 09:44:01;;;;;;;3.10;2.97;;;9.50;99.90;;;;;;5017527;28;20198;-84
2023/11/16 09:46:32;;;;;;;0.70;0.70;;;9.40;99.90;;;;;;5032641;28;20239;-86
2023/11/16 09:49:05;;;;;;;0.60;0.60;;;9.40;99.90;;;;;;5039697;28;20211;-87
2023/11/16 09:51:36;;;;;;;0.90;0.90;;;9.40;99.90;;;;;;5026504;28;20202;-88
2023/11/16 09:54:08;;;;;;;0.80;0.80;;;9.40;99.90;;;;;;5007797;28;20277;-86
2023/11/16 09:56:40;;;;;;;4.53;3.60;;;9.40;99.90;;;;;;5025732;28;20208;-84
2023/11/16 09:59:14;;;;;;;0.80;0.80;;;9.40;99.90;;;;;;5025316;28;20229;-84
2023/11/16 10:01:53;;;;;;;1.10;1.10;;;9.30;99.90;;;;;;5023243;28;20201;-88
2023/11/16 10:04:20;;;;;;;0.70;0.70;;;9.00;99.90;;;;;;5022219;28;20554;-85
2023/11/16 10:06:50;;;;;;;0.90;0.90;;;9.00;99.90;;;;;;5019961;28;20202;-85
2023/11/16 10:09:18;;;;;;;1.73;1.63;;;9.20;99.90;;;;;;5022905;28;20202;-90
2023/11/16 10:11:45;;;;;;;0.60;0.60;;;9.40;99.90;;;;;;5012569;28;20593;-89
2023/11/16 10:14:12;;;;;;;2.30;2.20;;;9.50;99.90;;;;;;5010800;28;20460;-90
2023/11/16 10:16:40;;;;;;;0.70;0.70;;;9.50;99.90;;;;;;5026395;28;20229;-91
2023/11/16 10:19:10;;;;;;;1.05;1.05;;;9.50;99.90;;;;;;5025008;28;20401;-87
2023/11/16 10:21:39;;;;;;;0.60;0.60;;;9.70;99.90;;;;;;5023660;28;20189;-85
2023/11/16 10:24:12;;;;;;;0.60;0.60;;;9.80;99.90;;;;;;5027010;28;20205;-88
2023/11/16 10:26:40;;;;;;;0.60;0.60;;;9.90;99.90;;;;;;5031562;28;20198;-88
2023/11/16 10:29:10;;;;;;;0.60;0.60;;;10.10;99.90;;;;;;5032417;28;20205;-89
2023/11/16 10:31:37;;;;;;;0.70;0.70;;;10.00;99.90;;;;;;5028152;28;20318;-86
2023/11/16 10:34:04;;;;;;;0.80;0.80;;;10.10;99.90;;;;;;5027591;28;20185;-83
2023/11/16 10:36:32;;;;;;;0.70;0.70;;;10.20;99.90;;;;;;5033315;28;20228;-86
2023/11/16 10:39:01;;;;;;;0.60;0.60;;;10.30;99.90;;;;;;5034126;28;20548;-85
2023/11/16 10:41:29;;;;;;;1.05;1.05;;;10.50;99.90;;;;;;5096111;23;20208;-83
2023/11/16 10:43:57;;;;;;;1.02;1.02;;;10.60;99.90;;;;;;5047230;28;20233;-87
2023/11/16 10:46:27;;;;;;;0.70;0.70;;;10.60;99.90;;;;;;5031053;28;20506;-84
2023/11/16 10:48:54;;;;;;;0.85;0.85;;;10.60;99.90;;;;;;5043377;28;20470;-84
2023/11/16 10:51:24;;;;;;;0.60;0.60;;;10.60;99.90;;;;;;5045060;28;20212;-86
2023/11/16 10:53:57;;;;;;;0.85;0.85;;;10.60;99.90;;;;;;5046286;28;20245;-85
2023/11/16 10:56:26;;;;;;;0.63;0.63;;;10.50;99.90;;;;;;5197276;23;20236;-88
2023/11/16 10:58:54;;;;;;;0.57;0.57;;;10.30;99.90;;;;;;5036759;28;20237;-85
2023/11/16 11:01:22;;;;;;;0.82;0.82;;;10.30;99.90;;;;;;5100856;22;20305;-88
2023/11/16 11:03:51;;;;;;;0.77;0.77;;;10.30;99.90;;;;;;5015556;28;20348;-87
2023/11/16 11:06:22;;;;;;;0.60;0.60;;;10.40;99.90;;;;;;5044547;28;20236;-88
2023/11/16 11:08:53;;;;;;;1.27;1.27;;;10.40;99.90;;;;;;5036866;28;20217;-89
2023/11/16 11:11:27;;;;;;;0.60;0.60;;;10.30;99.90;;;;;;5019256;28;20237;-86
2023/11/16 11:13:57;;;;;;;0.60;0.60;;;10.20;99.90;;;;;;5019719;28;20192;-88
2023/11/16 11:16:29;;;;;;;0.60;0.60;;;10.30;99.90;;;;;;5022375;28;20269;-89
2023/11/16 11:18:57;;;;;;;0.75;0.75;;;10.30;99.90;;;;;;5024300;28;20221;-83
2023/11/16 11:21:30;;;;;;;0.60;0.60;;;10.30;99.90;;;;;;5024622;28;20221;-86
2023/11/16 11:24:05;;;;;;;0.60;0.60;;;10.30;99.90;;;;;;5045451;28;20232;-91
2023/11/16 11:26:45;;;;;;;2.63;1.67;;;10.40;99.90;;;;;;5023360;28;20520;-86
2023/11/16 11:29:12;;;;;;;1.13;1.13;;;10.40;99.90;;;;;;5016405;28;20233;-88
2023/11/16 11:32:02;;;;;;;0.60;0.60;;;10.40;99.90;;;;;;5016118;28;20193;-88
2023/11/16 11:34:36;;;;;;;0.60;0.60;;;10.40;99.90;;;;;;5021375;28;20253;-88
2023/11/16 11:37:10;;;;;;;0.80;0.80;;;10.50;99.90;;;;;;5023198;28;20220;-84
2023/11/16 11:39:45;;;;;;;0.60;0.60;;;10.60;99.90;;;;;;5269225;22;20235;-88
2023/11/16 11:44:53;;;;;;;0.70;0.70;;;10.60;99.90;;;;;;5029602;28;20211;-87
2023/11/16 11:47:22;;;;;;;1.05;1.05;;;10.70;99.90;;;;;;5028103;28;20206;-87
2023/11/16 11:49:50;;;;;;;0.70;0.70;;;10.60;99.90;;;;;;5028642;28;20185;-90
2023/11/16 11:52:18;;;;;;;0.77;0.77;;;10.60;99.90;;;;;;5021984;28;20202;-90
2023/11/16 11:54:45;;;;;;;0.60;0.60;;;10.80;99.90;;;;;;5146398;22;20237;-89
2023/11/16 11:57:12;;;;;;;0.60;0.60;;;11.10;99.90;;;;;;5042826;28;20200;-90
2023/11/16 11:59:50;;;;;;;0.70;0.70;;;11.40;99.90;;;;;;5041072;28;20529;-90
2023/11/16 12:02:19;;;;;;;0.60;0.60;;;11.30;99.90;;;;;;5052636;28;20194;-88
2023/11/16 12:04:46;;;;;;;0.50;0.50;;;11.30;99.90;;;;;;5165527;22;20640;-87
2023/11/16 12:07:14;;;;;;;0.60;0.60;;;11.30;99.90;;;;;;5046815;28;20345;-84
2023/11/16 12:09:45;;;;;;;0.60;0.60;;;11.30;99.90;;;;;;5047320;28;20367;-91
2023/11/16 12:12:13;;;;;;;0.60;0.60;;;11.40;99.90;;;;;;5046942;28;20235;-89
2023/11/16 12:17:18;;;;;;;0.60;0.60;;;11.50;99.90;;;;;;5231850;22;20276;-87
2023/11/16 12:19:51;;;;;;;0.60;0.60;;;11.40;99.90;;;;;;5163146;22;20228;-88
2023/11/16 12:22:20;;;;;;;0.60;0.60;;;11.30;99.90;;;;;;5306186;22;20515;-86
2023/11/16 12:24:48;;;;;;;0.60;0.60;;;11.40;99.90;;;;;;5188907;22;20232;-87
2023/11/16 12:27:16;;;;;;;12.70;4.40;;;11.30;99.90;;;;;;5079266;22;20469;-87
2023/11/16 12:30:03;;;;;;;0.60;0.60;;;11.20;99.90;;;;;;5248191;22;20309;-88
2023/11/16 12:32:35;;;;;;;0.60;0.60;;;11.20;99.90;;;;;;5021292;28;20194;-89
2023/11/16 12:35:02;;;;;;;0.60;0.60;;;11.10;99.90;;;;;;5030385;28;20252;-88
2023/11/16 12:37:29;;;;;;;0.60;0.60;;;11.10;99.90;;;;;;5187165;23;20443;-88
2023/11/16 12:39:58;;;;;;;0.80;0.80;;;11.00;99.90;;;;;;5066278;28;20246;-89
2023/11/16 12:42:26;;;;;;;0.73;0.73;;;11.00;99.90;;;;;;5058535;28;20196;-86
2023/11/16 12:44:54;;;;;;;0.75;0.75;;;10.80;99.90;;;;;;5074487;28;20202;-88
2023/11/16 12:47:21;;;;;;;1.13;1.13;;;10.80;99.90;;;;;;5067450;28;20214;-86
2023/11/16 12:49:52;;;;;;;0.57;0.57;;;10.70;99.90;;;;;;5059412;28;20215;-85
2023/11/16 12:52:23;;;;;;;0.60;0.60;;;10.90;99.90;;;;;;5073356;28;20196;-86
2023/11/16 12:54:53;;;;;;;0.77;0.77;;;10.90;99.90;;;;;;5060413;28;20201;-85
2023/11/16 12:57:20;;;;;;;1.58;1.48;;;10.80;99.90;;;;;;5067144;28;20250;-85
2023/11/16 12:59:48;;;;;;;0.60;0.60;;;10.80;99.90;;;;;;5055282;28;20417;-87
2023/11/16 13:02:16;;;;;;;0.60;0.60;;;10.80;99.90;;;;;;5049652;28;20255;-85
2023/11/16 13:04:43;;;;;;;0.60;0.60;;;10.80;99.90;;;;;;5068478;28;20196;-84
2023/11/16 13:07:11;;;;;;;0.60;0.60;;;10.80;99.90;;;;;;5066913;28;20275;-86
2023/11/16 13:09:39;;;;;;;0.60;0.60;;;10.50;99.90;;;;;;5071712;28;20525;-85
2023/11/16 13:12:06;;;;;;;0.60;0.60;;;10.60;99.90;;;;;;5059443;28;20204;-85
2023/11/16 13:14:48;;;;;;;0.60;0.60;;;10.80;99.90;;;;;;5054519;28;20196;-86
2023/11/16 13:17:15;;;;;;;1.35;1.35;;;10.90;99.90;;;;;;5067238;28;20258;-83
2023/11/16 13:19:42;;;;;;;0.68;0.68;;;11.10;99.90;;;;;;5060583;28;20220;-86
2023/11/16 13:22:10;;;;;;;0.60;0.60;;;10.80;99.90;;;;;;5067654;28;20239;-85
2023/11/16 13:24:39;;;;;;;0.80;0.80;;;10.80;99.90;;;;;;5065758;28;20200;-89
2023/11/16 13:27:06;;;;;;;0.70;0.70;;;10.90;99.90;;;;;;5068319;28;20564;-85
2023/11/16 13:29:33;;;;;;;2.25;2.15;;;10.70;99.90;;;;;;5066168;28;20223;-86
2023/11/16 13:32:00;;;;;;;0.60;0.60;;;10.70;99.90;;;;;;5057141;28;20274;-85
2023/11/16 13:38:15;;;;;;;0.70;0.70;;;10.60;99.90;;;;;;5051828;28;20223;-85
2023/11/16 13:40:42;;;;;;;6.53;1.05;;;10.50;99.90;;;;;;5062921;28;20224;-84
2023/11/16 13:43:09;;;;;;;0.70;0.70;;;10.50;99.90;;;;;;5058543;28;20539;-86
2023/11/16 13:45:37;;;;;;;0.93;0.93;;;10.50;99.90;;;;;;5065625;28;20438;-84
2023/11/16 13:48:04;;;;;;;0.60;0.60;;;10.50;99.90;;;;;;5065660;28;20348;-85
2023/11/16 13:50:31;;;;;;;0.70;0.70;;;10.30;99.90;;;;;;5055894;28;20203;-86
2023/11/16 13:52:58;;;;;;;0.50;0.50;;;10.20;99.90;;;;;;5055735;28;20256;-86
2023/11/16 13:55:25;;;;;;;0.60;0.60;;;10.10;99.90;;;;;;5086175;28;20248;-87
2023/11/16 13:57:53;;;;;;;1.92;1.83;;;10.10;99.90;;;;;;5088850;28;20242;-87
2023/11/16 14:00:23;;;;;;;0.50;0.50;;;10.00;99.90;;;;;;5259835;22;20218;-85
2023/11/16 14:02:50;;;;;;;0.85;0.85;;;9.90;99.90;;;;;;5161968;22;20225;-85
2023/11/16 14:05:18;;;;;;;0.50;0.50;;;9.90;99.90;;;;;;5031662;28;20212;-87
2023/11/16 14:07:45;;;;;;;0.73;0.73;;;9.90;99.90;;;;;;5027258;28;20198;-85
2023/11/16 14:10:13;;;;;;;0.98;0.98;;;9.90;99.90;;;;;;5025928;28;20205;-86